Paris, France
Current Conditions -  °F | °C
As of 7:00 AM on Saturday 29 Nov 2014 (Local Time) from LFPB Reporting Station
Clear Clear  
Wind Chill:   Ceiling: Unl
Heat Index:   Visibility: 4mi
Dew Point:   Wind: 6mph
Humidity: 93%   Direction: 80°E
Pressure: 29.8"   Gusts: NA
Location:  48.86°N, 2.35°E
Report Text: LFPB 290600Z AUTO 08005KT 7000 NSC 04/03 Q1009
Loading
Personal Weather Stations






























Interactive Weather Map New forecast layout! Learn more

10-Day Weather Forecast

Advertisements
Track Severe Weather on mobile